sensor_id;sensor_type;location;lat;lon;timestamp;temperature;humidity
70708;SHT30;58277;47.316;18.908;2023-03-13T00:00:46;6.32;54.97
70708;SHT30;58277;47.316;18.908;2023-03-13T00:03:08;6.34;54.65
70708;SHT30;58277;47.316;18.908;2023-03-13T00:05:34;6.42;54.71
70708;SHT30;58277;47.316;18.908;2023-03-13T00:07:57;6.43;55.52
70708;SHT30;58277;47.316;18.908;2023-03-13T00:10:19;6.42;54.93
70708;SHT30;58277;47.316;18.908;2023-03-13T00:12:42;6.44;55.15
70708;SHT30;58277;47.316;18.908;2023-03-13T00:15:05;6.43;55.32
70708;SHT30;58277;47.316;18.908;2023-03-13T00:17:28;6.40;55.51
70708;SHT30;58277;47.316;18.908;2023-03-13T00:19:52;6.43;56.07
70708;SHT30;58277;47.316;18.908;2023-03-13T00:22:14;6.51;56.54
70708;SHT30;58277;47.316;18.908;2023-03-13T00:24:37;6.49;57.35
70708;SHT30;58277;47.316;18.908;2023-03-13T00:27:00;6.21;58.29
70708;SHT30;58277;47.316;18.908;2023-03-13T00:29:26;6.26;58.48
70708;SHT30;58277;47.316;18.908;2023-03-13T00:31:49;6.29;58.17
70708;SHT30;58277;47.316;18.908;2023-03-13T00:34:13;6.16;59.20
70708;SHT30;58277;47.316;18.908;2023-03-13T00:36:36;6.22;59.20
70708;SHT30;58277;47.316;18.908;2023-03-13T00:38:59;6.25;59.85
70708;SHT30;58277;47.316;18.908;2023-03-13T00:41:28;6.08;59.98
70708;SHT30;58277;47.316;18.908;2023-03-13T00:43:51;6.08;61.27
70708;SHT30;58277;47.316;18.908;2023-03-13T00:46:16;6.22;59.77
70708;SHT30;58277;47.316;18.908;2023-03-13T00:48:40;6.18;59.75
70708;SHT30;58277;47.316;18.908;2023-03-13T00:51:03;6.16;59.57
70708;SHT30;58277;47.316;18.908;2023-03-13T00:53:27;6.25;59.01
70708;SHT30;58277;47.316;18.908;2023-03-13T00:55:54;6.23;59.39
70708;SHT30;58277;47.316;18.908;2023-03-13T00:58:18;6.32;59.26
70708;SHT30;58277;47.316;18.908;2023-03-13T01:00:40;6.33;58.05
70708;SHT30;58277;47.316;18.908;2023-03-13T01:03:03;6.37;58.15
70708;SHT30;58277;47.316;18.908;2023-03-13T01:05:27;6.44;58.31
70708;SHT30;58277;47.316;18.908;2023-03-13T01:07:49;6.53;57.57
70708;SHT30;58277;47.316;18.908;2023-03-13T01:10:12;6.39;57.52
70708;SHT30;58277;47.316;18.908;2023-03-13T01:12:35;6.40;58.18
70708;SHT30;58277;47.316;18.908;2023-03-13T01:14:58;6.43;57.46
70708;SHT30;58277;47.316;18.908;2023-03-13T01:17:21;6.30;57.85
70708;SHT30;58277;47.316;18.908;2023-03-13T01:19:47;6.28;57.48
70708;SHT30;58277;47.316;18.908;2023-03-13T01:22:09;6.26;57.61
70708;SHT30;58277;47.316;18.908;2023-03-13T01:24:34;6.22;57.75
70708;SHT30;58277;47.316;18.908;2023-03-13T01:26:57;6.29;57.31
70708;SHT30;58277;47.316;18.908;2023-03-13T01:29:19;6.34;57.24
70708;SHT30;58277;47.316;18.908;2023-03-13T01:31:42;6.40;57.21
70708;SHT30;58277;47.316;18.908;2023-03-13T01:34:06;6.21;57.48
70708;SHT30;58277;47.316;18.908;2023-03-13T01:36:30;6.22;57.77
70708;SHT30;58277;47.316;18.908;2023-03-13T01:38:55;6.34;57.30
70708;SHT30;58277;47.316;18.908;2023-03-13T01:41:19;6.39;57.42
70708;SHT30;58277;47.316;18.908;2023-03-13T01:43:44;6.46;57.22
70708;SHT30;58277;47.316;18.908;2023-03-13T01:49:11;6.40;57.23
70708;SHT30;58277;47.316;18.908;2023-03-13T01:52:25;6.44;57.03
70708;SHT30;58277;47.316;18.908;2023-03-13T01:55:04;6.37;57.31
70708;SHT30;58277;47.316;18.908;2023-03-13T01:57:46;6.42;57.38
70708;SHT30;58277;47.316;18.908;2023-03-13T02:00:36;6.50;56.75
70708;SHT30;58277;47.316;18.908;2023-03-13T02:03:06;6.47;56.88
70708;SHT30;58277;47.316;18.908;2023-03-13T02:05:30;6.40;57.38
70708;SHT30;58277;47.316;18.908;2023-03-13T02:08:07;6.46;57.05
70708;SHT30;58277;47.316;18.908;2023-03-13T02:10:33;6.39;57.30
70708;SHT30;58277;47.316;18.908;2023-03-13T02:13:01;6.43;56.83
70708;SHT30;58277;47.316;18.908;2023-03-13T02:15:25;6.42;57.06
70708;SHT30;58277;47.316;18.908;2023-03-13T02:17:49;6.51;57.26
70708;SHT30;58277;47.316;18.908;2023-03-13T02:20:14;6.61;57.75
70708;SHT30;58277;47.316;18.908;2023-03-13T02:28:11;6.21;59.37
70708;SHT30;58277;47.316;18.908;2023-03-13T02:30:37;6.21;59.21
70708;SHT30;58277;47.316;18.908;2023-03-13T02:33:01;6.08;59.77
70708;SHT30;58277;47.316;18.908;2023-03-13T02:35:24;5.91;60.01
70708;SHT30;58277;47.316;18.908;2023-03-13T02:37:50;5.85;60.22
70708;SHT30;58277;47.316;18.908;2023-03-13T02:40:20;5.85;60.61
70708;SHT30;58277;47.316;18.908;2023-03-13T02:42:45;5.87;60.96
70708;SHT30;58277;47.316;18.908;2023-03-13T02:45:09;5.97;60.68
70708;SHT30;58277;47.316;18.908;2023-03-13T02:47:34;5.92;60.60
70708;SHT30;58277;47.316;18.908;2023-03-13T02:49:57;5.97;60.65
70708;SHT30;58277;47.316;18.908;2023-03-13T02:52:24;6.05;60.45
70708;SHT30;58277;47.316;18.908;2023-03-13T02:54:50;6.02;60.22
70708;SHT30;58277;47.316;18.908;2023-03-13T02:57:16;6.25;60.19
70708;SHT30;58277;47.316;18.908;2023-03-13T02:59:40;6.39;59.28
70708;SHT30;58277;47.316;18.908;2023-03-13T03:02:02;6.29;59.42
70708;SHT30;58277;47.316;18.908;2023-03-13T03:04:26;6.23;59.43
70708;SHT30;58277;47.316;18.908;2023-03-13T03:06:50;6.29;59.96
70708;SHT30;58277;47.316;18.908;2023-03-13T03:09:14;6.29;59.95
70708;SHT30;58277;47.316;18.908;2023-03-13T03:11:37;6.22;59.98
70708;SHT30;58277;47.316;18.908;2023-03-13T03:14:05;6.13;59.93
70708;SHT30;58277;47.316;18.908;2023-03-13T03:16:32;6.19;60.17
70708;SHT30;58277;47.316;18.908;2023-03-13T03:18:55;6.22;60.25
70708;SHT30;58277;47.316;18.908;2023-03-13T03:21:18;6.29;59.79
70708;SHT30;58277;47.316;18.908;2023-03-13T03:23:42;6.40;59.29
70708;SHT30;58277;47.316;18.908;2023-03-13T03:26:07;6.34;58.91
70708;SHT30;58277;47.316;18.908;2023-03-13T03:28:30;6.25;59.28
70708;SHT30;58277;47.316;18.908;2023-03-13T03:30:55;6.44;59.08
70708;SHT30;58277;47.316;18.908;2023-03-13T03:33:18;6.37;59.14
70708;SHT30;58277;47.316;18.908;2023-03-13T03:35:40;6.22;59.20
70708;SHT30;58277;47.316;18.908;2023-03-13T03:38:04;6.21;58.92
70708;SHT30;58277;47.316;18.908;2023-03-13T03:40:27;6.15;59.10
70708;SHT30;58277;47.316;18.908;2023-03-13T03:42:49;6.18;58.80
70708;SHT30;58277;47.316;18.908;2023-03-13T03:45:12;6.04;59.21
70708;SHT30;58277;47.316;18.908;2023-03-13T03:47:35;5.90;59.36
70708;SHT30;58277;47.316;18.908;2023-03-13T03:49:58;5.88;59.45
70708;SHT30;58277;47.316;18.908;2023-03-13T03:52:21;5.71;59.92
70708;SHT30;58277;47.316;18.908;2023-03-13T03:54:44;5.56;60.35
70708;SHT30;58277;47.316;18.908;2023-03-13T03:57:08;5.50;60.98
70708;SHT30;58277;47.316;18.908;2023-03-13T03:59:32;5.42;60.66
70708;SHT30;58277;47.316;18.908;2023-03-13T04:02:01;5.33;60.73
70708;SHT30;58277;47.316;18.908;2023-03-13T04:04:26;5.30;60.89
70708;SHT30;58277;47.316;18.908;2023-03-13T04:06:57;5.22;61.09
70708;SHT30;58277;47.316;18.908;2023-03-13T04:09:22;5.22;61.24
70708;SHT30;58277;47.316;18.908;2023-03-13T04:11:45;5.16;61.69
70708;SHT30;58277;47.316;18.908;2023-03-13T04:14:08;5.13;61.30
70708;SHT30;58277;47.316;18.908;2023-03-13T04:16:31;5.11;61.88
70708;SHT30;58277;47.316;18.908;2023-03-13T04:18:55;5.13;61.26
70708;SHT30;58277;47.316;18.908;2023-03-13T04:21:19;5.19;61.51
70708;SHT30;58277;47.316;18.908;2023-03-13T04:23:47;5.19;61.23
70708;SHT30;58277;47.316;18.908;2023-03-13T04:26:10;5.15;61.43
70708;SHT30;58277;47.316;18.908;2023-03-13T04:28:34;5.22;61.19
70708;SHT30;58277;47.316;18.908;2023-03-13T04:30:59;5.32;60.98
70708;SHT30;58277;47.316;18.908;2023-03-13T04:33:34;5.30;61.15
70708;SHT30;58277;47.316;18.908;2023-03-13T04:36:10;5.27;61.23
70708;SHT30;58277;47.316;18.908;2023-03-13T04:38:54;5.22;61.62
70708;SHT30;58277;47.316;18.908;2023-03-13T04:41:31;5.29;60.90
70708;SHT30;58277;47.316;18.908;2023-03-13T04:44:27;5.27;60.91
70708;SHT30;58277;47.316;18.908;2023-03-13T04:46:57;5.32;61.07
70708;SHT30;58277;47.316;18.908;2023-03-13T04:49:42;5.29;60.41
70708;SHT30;58277;47.316;18.908;2023-03-13T04:52:23;5.44;59.86
70708;SHT30;58277;47.316;18.908;2023-03-13T04:55:06;5.48;59.78
70708;SHT30;58277;47.316;18.908;2023-03-13T04:57:49;5.47;59.78
70708;SHT30;58277;47.316;18.908;2023-03-13T05:00:32;5.42;59.78
70708;SHT30;58277;47.316;18.908;2023-03-13T05:03:18;5.48;60.24
70708;SHT30;58277;47.316;18.908;2023-03-13T05:05:48;5.68;59.52
70708;SHT30;58277;47.316;18.908;2023-03-13T05:08:35;5.87;58.56
70708;SHT30;58277;47.316;18.908;2023-03-13T05:11:16;5.81;58.74
70708;SHT30;58277;47.316;18.908;2023-03-13T05:14:08;5.90;58.75
70708;SHT30;58277;47.316;18.908;2023-03-13T05:16:43;5.90;58.61
70708;SHT30;58277;47.316;18.908;2023-03-13T05:19:46;5.92;58.54
70708;SHT30;58277;47.316;18.908;2023-03-13T05:22:31;5.83;58.58
70708;SHT30;58277;47.316;18.908;2023-03-13T05:25:32;5.91;58.73
70708;SHT30;58277;47.316;18.908;2023-03-13T05:28:18;5.78;59.14
70708;SHT30;58277;47.316;18.908;2023-03-13T05:30:49;5.79;59.90
70708;SHT30;58277;47.316;18.908;2023-03-13T05:33:30;6.02;59.41
70708;SHT30;58277;47.316;18.908;2023-03-13T05:36:03;6.09;59.15
70708;SHT30;58277;47.316;18.908;2023-03-13T05:38:32;6.15;58.66
70708;SHT30;58277;47.316;18.908;2023-03-13T05:41:00;6.26;58.63
70708;SHT30;58277;47.316;18.908;2023-03-13T05:43:42;6.06;58.46
70708;SHT30;58277;47.316;18.908;2023-03-13T05:46:22;6.04;58.86
70708;SHT30;58277;47.316;18.908;2023-03-13T05:48:57;5.90;58.99
70708;SHT30;58277;47.316;18.908;2023-03-13T05:51:53;6.05;59.01
70708;SHT30;58277;47.316;18.908;2023-03-13T05:54:30;6.21;58.79
70708;SHT30;58277;47.316;18.908;2023-03-13T05:57:17;6.06;58.92
70708;SHT30;58277;47.316;18.908;2023-03-13T06:00:02;6.05;59.24
70708;SHT30;58277;47.316;18.908;2023-03-13T06:02:51;6.04;59.77
70708;SHT30;58277;47.316;18.908;2023-03-13T06:05:20;5.99;60.03
70708;SHT30;58277;47.316;18.908;2023-03-13T06:07:43;5.95;59.84
70708;SHT30;58277;47.316;18.908;2023-03-13T06:10:06;5.75;60.27
70708;SHT30;58277;47.316;18.908;2023-03-13T06:12:30;5.87;60.72
70708;SHT30;58277;47.316;18.908;2023-03-13T06:14:53;6.26;59.94
70708;SHT30;58277;47.316;18.908;2023-03-13T06:17:39;6.74;57.54
70708;SHT30;58277;47.316;18.908;2023-03-13T06:20:03;7.40;56.14
70708;SHT30;58277;47.316;18.908;2023-03-13T06:22:27;7.39;55.39
70708;SHT30;58277;47.316;18.908;2023-03-13T06:24:50;7.09;56.69
70708;SHT30;58277;47.316;18.908;2023-03-13T06:27:14;7.55;55.01
70708;SHT30;58277;47.316;18.908;2023-03-13T06:29:38;8.22;53.18
70708;SHT30;58277;47.316;18.908;2023-03-13T06:32:00;8.81;51.37
70708;SHT30;58277;47.316;18.908;2023-03-13T06:34:23;8.79;51.54
70708;SHT30;58277;47.316;18.908;2023-03-13T06:36:46;8.77;51.69
70708;SHT30;58277;47.316;18.908;2023-03-13T06:39:10;8.46;51.92
70708;SHT30;58277;47.316;18.908;2023-03-13T06:41:34;8.57;51.60
70708;SHT30;58277;47.316;18.908;2023-03-13T06:43:57;9.12;50.76
70708;SHT30;58277;47.316;18.908;2023-03-13T06:46:23;9.04;50.46
70708;SHT30;58277;47.316;18.908;2023-03-13T06:48:48;8.81;51.64
70708;SHT30;58277;47.316;18.908;2023-03-13T06:51:12;8.52;51.63
70708;SHT30;58277;47.316;18.908;2023-03-13T06:53:37;8.24;52.40
70708;SHT30;58277;47.316;18.908;2023-03-13T06:56:02;8.28;53.50
70708;SHT30;58277;47.316;18.908;2023-03-13T06:58:25;8.39;51.54
70708;SHT30;58277;47.316;18.908;2023-03-13T07:00:54;8.73;51.31
70708;SHT30;58277;47.316;18.908;2023-03-13T07:03:17;9.00;50.58
70708;SHT30;58277;47.316;18.908;2023-03-13T07:05:42;8.96;50.02
70708;SHT30;58277;47.316;18.908;2023-03-13T07:08:06;8.96;50.18
70708;SHT30;58277;47.316;18.908;2023-03-13T07:10:32;9.40;49.42
70708;SHT30;58277;47.316;18.908;2023-03-13T07:12:55;9.80;48.69
70708;SHT30;58277;47.316;18.908;2023-03-13T07:15:19;9.89;47.94
70708;SHT30;58277;47.316;18.908;2023-03-13T07:17:44;10.24;46.78
70708;SHT30;58277;47.316;18.908;2023-03-13T07:20:10;10.55;46.96
70708;SHT30;58277;47.316;18.908;2023-03-13T07:22:36;10.86;45.87
70708;SHT30;58277;47.316;18.908;2023-03-13T07:24:59;11.31;44.44
70708;SHT30;58277;47.316;18.908;2023-03-13T07:27:22;11.37;43.57
70708;SHT30;58277;47.316;18.908;2023-03-13T07:29:45;10.99;44.72
70708;SHT30;58277;47.316;18.908;2023-03-13T07:32:11;11.07;44.95
70708;SHT30;58277;47.316;18.908;2023-03-13T07:34:34;11.51;43.17
70708;SHT30;58277;47.316;18.908;2023-03-13T07:36:58;11.66;44.01
70708;SHT30;58277;47.316;18.908;2023-03-13T07:39:22;12.14;42.64
70708;SHT30;58277;47.316;18.908;2023-03-13T07:41:46;12.88;40.76
70708;SHT30;58277;47.316;18.908;2023-03-13T07:44:32;13.50;39.97
70708;SHT30;58277;47.316;18.908;2023-03-13T07:47:15;14.80;37.11
70708;SHT30;58277;47.316;18.908;2023-03-13T07:49:39;15.29;35.82
70708;SHT30;58277;47.316;18.908;2023-03-13T07:52:06;15.62;35.66
70708;SHT30;58277;47.316;18.908;2023-03-13T07:54:29;15.83;34.71
70708;SHT30;58277;47.316;18.908;2023-03-13T07:56:53;14.25;36.86
70708;SHT30;58277;47.316;18.908;2023-03-13T07:59:23;14.97;35.97
70708;SHT30;58277;47.316;18.908;2023-03-13T08:01:47;14.63;36.87
70708;SHT30;58277;47.316;18.908;2023-03-13T08:04:12;13.61;37.64
70708;SHT30;58277;47.316;18.908;2023-03-13T08:06:36;13.64;38.65
70708;SHT30;58277;47.316;18.908;2023-03-13T08:08:59;14.12;38.52
70708;SHT30;58277;47.316;18.908;2023-03-13T08:11:23;14.09;36.97
70708;SHT30;58277;47.316;18.908;2023-03-13T08:13:47;14.98;35.87
70708;SHT30;58277;47.316;18.908;2023-03-13T08:18:36;14.40;36.92
70708;SHT30;58277;47.316;18.908;2023-03-13T08:21:05;13.42;38.08
70708;SHT30;58277;47.316;18.908;2023-03-13T08:23:32;13.22;39.00
70708;SHT30;58277;47.316;18.908;2023-03-13T08:26:01;12.36;40.48
70708;SHT30;58277;47.316;18.908;2023-03-13T08:28:25;11.83;41.96
70708;SHT30;58277;47.316;18.908;2023-03-13T08:30:47;11.38;42.97
70708;SHT30;58277;47.316;18.908;2023-03-13T08:33:10;11.51;43.29
70708;SHT30;58277;47.316;18.908;2023-03-13T08:35:33;11.64;43.84
70708;SHT30;58277;47.316;18.908;2023-03-13T08:37:56;11.76;43.46
70708;SHT30;58277;47.316;18.908;2023-03-13T08:40:19;11.87;41.91
70708;SHT30;58277;47.316;18.908;2023-03-13T08:42:42;12.03;41.06
70708;SHT30;58277;47.316;18.908;2023-03-13T08:45:05;12.16;41.56
70708;SHT30;58277;47.316;18.908;2023-03-13T08:47:29;11.85;40.44
70708;SHT30;58277;47.316;18.908;2023-03-13T08:49:52;11.83;42.96
70708;SHT30;58277;47.316;18.908;2023-03-13T08:52:16;11.61;41.28
70708;SHT30;58277;47.316;18.908;2023-03-13T08:54:39;11.76;41.12
70708;SHT30;58277;47.316;18.908;2023-03-13T08:57:05;12.02;41.25
70708;SHT30;58277;47.316;18.908;2023-03-13T08:59:30;12.13;40.73
70708;SHT30;58277;47.316;18.908;2023-03-13T09:01:53;12.36;39.19
70708;SHT30;58277;47.316;18.908;2023-03-13T09:04:16;12.38;39.04
70708;SHT30;58277;47.316;18.908;2023-03-13T09:06:40;12.51;39.82
70708;SHT30;58277;47.316;18.908;2023-03-13T09:09:04;12.45;40.00
70708;SHT30;58277;47.316;18.908;2023-03-13T09:11:28;12.65;38.60
70708;SHT30;58277;47.316;18.908;2023-03-13T09:13:52;12.79;39.96
70708;SHT30;58277;47.316;18.908;2023-03-13T09:16:28;12.42;39.57
70708;SHT30;58277;47.316;18.908;2023-03-13T09:18:52;12.42;39.43
70708;SHT30;58277;47.316;18.908;2023-03-13T09:21:24;12.42;39.82
70708;SHT30;58277;47.316;18.908;2023-03-13T09:23:49;12.65;39.90
70708;SHT30;58277;47.316;18.908;2023-03-13T09:26:13;12.62;38.77
70708;SHT30;58277;47.316;18.908;2023-03-13T09:28:37;12.57;39.68
70708;SHT30;58277;47.316;18.908;2023-03-13T09:31:18;12.82;38.50
70708;SHT30;58277;47.316;18.908;2023-03-13T09:33:42;12.79;38.80
70708;SHT30;58277;47.316;18.908;2023-03-13T09:36:06;12.93;38.78
70708;SHT30;58277;47.316;18.908;2023-03-13T09:38:30;13.02;37.63
70708;SHT30;58277;47.316;18.908;2023-03-13T09:40:53;13.05;37.84
70708;SHT30;58277;47.316;18.908;2023-03-13T09:43:42;13.00;37.62
70708;SHT30;58277;47.316;18.908;2023-03-13T09:49:01;13.30;38.38
70708;SHT30;58277;47.316;18.908;2023-03-13T09:51:30;13.33;37.66
70708;SHT30;58277;47.316;18.908;2023-03-13T09:56:51;13.43;37.49
70708;SHT30;58277;47.316;18.908;2023-03-13T10:01:59;13.61;36.59
70708;SHT30;58277;47.316;18.908;2023-03-13T10:04:40;13.79;38.14
70708;SHT30;58277;47.316;18.908;2023-03-13T10:07:09;13.89;38.71
70708;SHT30;58277;47.316;18.908;2023-03-13T10:09:33;13.86;37.18
70708;SHT30;58277;47.316;18.908;2023-03-13T10:12:19;13.75;36.57
70708;SHT30;58277;47.316;18.908;2023-03-13T10:17:43;13.86;37.57
70708;SHT30;58277;47.316;18.908;2023-03-13T10:20:40;13.89;37.75
70708;SHT30;58277;47.316;18.908;2023-03-13T10:23:11;14.02;38.83
70708;SHT30;58277;47.316;18.908;2023-03-13T10:25:37;14.04;37.29
70708;SHT30;58277;47.316;18.908;2023-03-13T10:28:01;14.11;38.43
70708;SHT30;58277;47.316;18.908;2023-03-13T10:30:30;14.22;36.59
70708;SHT30;58277;47.316;18.908;2023-03-13T10:32:57;14.28;36.68
70708;SHT30;58277;47.316;18.908;2023-03-13T10:35:23;14.30;37.05
70708;SHT30;58277;47.316;18.908;2023-03-13T10:37:47;14.33;37.21
70708;SHT30;58277;47.316;18.908;2023-03-13T10:40:22;14.25;37.27
70708;SHT30;58277;47.316;18.908;2023-03-13T10:42:46;14.47;37.50
70708;SHT30;58277;47.316;18.908;2023-03-13T10:45:14;14.47;37.02
70708;SHT30;58277;47.316;18.908;2023-03-13T10:47:38;14.70;37.96
70708;SHT30;58277;47.316;18.908;2023-03-13T10:50:03;14.76;37.96
70708;SHT30;58277;47.316;18.908;2023-03-13T10:52:32;14.97;38.13
70708;SHT30;58277;47.316;18.908;2023-03-13T10:55:08;15.06;37.95
70708;SHT30;58277;47.316;18.908;2023-03-13T10:57:34;14.94;37.63
70708;SHT30;58277;47.316;18.908;2023-03-13T10:59:58;14.98;38.15
70708;SHT30;58277;47.316;18.908;2023-03-13T11:02:35;14.81;37.31
70708;SHT30;58277;47.316;18.908;2023-03-13T11:07:51;15.22;37.56
70708;SHT30;58277;47.316;18.908;2023-03-13T11:10:19;15.31;37.54
70708;SHT30;58277;47.316;18.908;2023-03-13T11:12:49;15.15;37.30
70708;SHT30;58277;47.316;18.908;2023-03-13T11:15:20;15.19;37.80
70708;SHT30;58277;47.316;18.908;2023-03-13T11:17:51;14.97;38.45
70708;SHT30;58277;47.316;18.908;2023-03-13T11:20:40;14.99;39.58
70708;SHT30;58277;47.316;18.908;2023-03-13T11:28:36;14.94;39.19
70708;SHT30;58277;47.316;18.908;2023-03-13T11:31:40;15.09;39.33
70708;SHT30;58277;47.316;18.908;2023-03-13T11:37:04;15.19;37.70
70708;SHT30;58277;47.316;18.908;2023-03-13T11:50:35;15.54;37.57
70708;SHT30;58277;47.316;18.908;2023-03-13T11:53:03;15.64;37.38
70708;SHT30;58277;47.316;18.908;2023-03-13T11:55:48;15.86;37.24
70708;SHT30;58277;47.316;18.908;2023-03-13T12:01:15;16.08;36.90
70708;SHT30;58277;47.316;18.908;2023-03-13T12:03:48;16.19;36.53
70708;SHT30;58277;47.316;18.908;2023-03-13T12:06:33;16.33;36.43
70708;SHT30;58277;47.316;18.908;2023-03-13T12:09:09;16.48;36.36
70708;SHT30;58277;47.316;18.908;2023-03-13T12:11:44;16.53;35.96
70708;SHT30;58277;47.316;18.908;2023-03-13T12:16:44;16.73;35.73
70708;SHT30;58277;47.316;18.908;2023-03-13T12:19:17;16.97;35.48
70708;SHT30;58277;47.316;18.908;2023-03-13T12:21:49;17.18;36.24
70708;SHT30;58277;47.316;18.908;2023-03-13T12:26:47;17.55;34.87
70708;SHT30;58277;47.316;18.908;2023-03-13T12:35:00;18.14;34.20
70708;SHT30;58277;47.316;18.908;2023-03-13T12:40:19;18.01;34.57
70708;SHT30;58277;47.316;18.908;2023-03-13T12:43:10;17.61;34.70
70708;SHT30;58277;47.316;18.908;2023-03-13T12:45:43;17.58;35.77
70708;SHT30;58277;47.316;18.908;2023-03-13T12:51:33;17.69;35.83
70708;SHT30;58277;47.316;18.908;2023-03-13T12:59:40;17.73;35.32
70708;SHT30;58277;47.316;18.908;2023-03-13T13:02:19;17.66;35.54
70708;SHT30;58277;47.316;18.908;2023-03-13T13:04:45;17.59;35.29
70708;SHT30;58277;47.316;18.908;2023-03-13T13:07:29;17.53;36.06
70708;SHT30;58277;47.316;18.908;2023-03-13T13:10:17;17.25;36.95
70708;SHT30;58277;47.316;18.908;2023-03-13T13:12:44;17.11;37.31
70708;SHT30;58277;47.316;18.908;2023-03-13T13:15:21;16.97;37.33
70708;SHT30;58277;47.316;18.908;2023-03-13T13:25:55;17.45;36.58
70708;SHT30;58277;47.316;18.908;2023-03-13T13:28:38;17.56;36.76
70708;SHT30;58277;47.316;18.908;2023-03-13T13:31:00;17.49;37.34
70708;SHT30;58277;47.316;18.908;2023-03-13T13:38:31;17.41;37.35
70708;SHT30;58277;47.316;18.908;2023-03-13T13:43:43;16.96;37.84
70708;SHT30;58277;47.316;18.908;2023-03-13T13:48:36;16.70;38.55
70708;SHT30;58277;47.316;18.908;2023-03-13T13:58:50;16.84;38.75
70708;SHT30;58277;47.316;18.908;2023-03-13T14:01:17;16.75;38.35
70708;SHT30;58277;47.316;18.908;2023-03-13T14:03:40;16.79;38.87
70708;SHT30;58277;47.316;18.908;2023-03-13T14:08:36;16.94;38.23
70708;SHT30;58277;47.316;18.908;2023-03-13T14:13:36;16.69;39.06
70708;SHT30;58277;47.316;18.908;2023-03-13T14:16:17;16.62;39.33
70708;SHT30;58277;47.316;18.908;2023-03-13T14:18:47;16.83;39.29
70708;SHT30;58277;47.316;18.908;2023-03-13T14:21:10;17.07;38.82
70708;SHT30;58277;47.316;18.908;2023-03-13T14:23:37;16.97;39.10
70708;SHT30;58277;47.316;18.908;2023-03-13T14:28:39;17.08;38.80
70708;SHT30;58277;47.316;18.908;2023-03-13T14:31:03;17.27;39.37
70708;SHT30;58277;47.316;18.908;2023-03-13T14:33:26;17.49;39.41
70708;SHT30;58277;47.316;18.908;2023-03-13T14:35:49;17.62;38.75
70708;SHT30;58277;47.316;18.908;2023-03-13T14:38:17;17.78;39.12
70708;SHT30;58277;47.316;18.908;2023-03-13T14:40:40;17.69;38.80
70708;SHT30;58277;47.316;18.908;2023-03-13T14:43:03;17.49;38.37
70708;SHT30;58277;47.316;18.908;2023-03-13T14:45:33;17.30;38.71
70708;SHT30;58277;47.316;18.908;2023-03-13T14:50:47;17.32;39.63
70708;SHT30;58277;47.316;18.908;2023-03-13T14:53:13;17.17;39.63
70708;SHT30;58277;47.316;18.908;2023-03-13T14:55:38;16.80;39.87
70708;SHT30;58277;47.316;18.908;2023-03-13T15:01:12;16.46;40.84
70708;SHT30;58277;47.316;18.908;2023-03-13T15:03:42;16.38;41.72
70708;SHT30;58277;47.316;18.908;2023-03-13T15:06:14;16.22;41.80
70708;SHT30;58277;47.316;18.908;2023-03-13T15:08:43;16.26;42.08
70708;SHT30;58277;47.316;18.908;2023-03-13T15:11:30;16.14;41.52
70708;SHT30;58277;47.316;18.908;2023-03-13T15:13:56;16.08;42.37
70708;SHT30;58277;47.316;18.908;2023-03-13T15:16:20;15.86;42.32
70708;SHT30;58277;47.316;18.908;2023-03-13T15:18:43;15.79;43.78
70708;SHT30;58277;47.316;18.908;2023-03-13T15:23:32;15.45;43.92
70708;SHT30;58277;47.316;18.908;2023-03-13T15:25:54;15.39;44.05
70708;SHT30;58277;47.316;18.908;2023-03-13T15:28:20;15.39;44.35
70708;SHT30;58277;47.316;18.908;2023-03-13T15:30:44;15.31;44.87
70708;SHT30;58277;47.316;18.908;2023-03-13T15:33:19;15.24;45.12
70708;SHT30;58277;47.316;18.908;2023-03-13T15:35:43;15.24;44.51
70708;SHT30;58277;47.316;18.908;2023-03-13T15:38:12;15.21;44.40
70708;SHT30;58277;47.316;18.908;2023-03-13T15:40:35;15.06;44.85
70708;SHT30;58277;47.316;18.908;2023-03-13T15:42:58;14.87;45.01
70708;SHT30;58277;47.316;18.908;2023-03-13T15:45:21;14.95;44.77
70708;SHT30;58277;47.316;18.908;2023-03-13T15:47:44;14.81;44.60
70708;SHT30;58277;47.316;18.908;2023-03-13T15:50:18;14.92;45.73
70708;SHT30;58277;47.316;18.908;2023-03-13T15:52:43;14.95;45.21
70708;SHT30;58277;47.316;18.908;2023-03-13T15:55:06;14.84;45.44
70708;SHT30;58277;47.316;18.908;2023-03-13T15:57:29;14.77;45.80
70708;SHT30;58277;47.316;18.908;2023-03-13T15:59:52;14.83;46.33
70708;SHT30;58277;47.316;18.908;2023-03-13T16:02:17;14.80;45.89
70708;SHT30;58277;47.316;18.908;2023-03-13T16:04:41;14.76;46.29
70708;SHT30;58277;47.316;18.908;2023-03-13T16:07:11;14.73;46.38
70708;SHT30;58277;47.316;18.908;2023-03-13T16:09:37;14.83;45.88
70708;SHT30;58277;47.316;18.908;2023-03-13T16:11:59;14.78;46.07
70708;SHT30;58277;47.316;18.908;2023-03-13T16:14:22;14.80;45.98
70708;SHT30;58277;47.316;18.908;2023-03-13T16:16:45;14.68;46.53
70708;SHT30;58277;47.316;18.908;2023-03-13T16:19:08;14.44;46.89
70708;SHT30;58277;47.316;18.908;2023-03-13T16:21:33;14.43;47.03
70708;SHT30;58277;47.316;18.908;2023-03-13T16:23:56;14.32;47.00
70708;SHT30;58277;47.316;18.908;2023-03-13T16:26:23;14.26;47.32
70708;SHT30;58277;47.316;18.908;2023-03-13T16:28:47;14.08;47.84
70708;SHT30;58277;47.316;18.908;2023-03-13T16:31:21;14.01;47.75
70708;SHT30;58277;47.316;18.908;2023-03-13T16:33:44;13.94;48.24
70708;SHT30;58277;47.316;18.908;2023-03-13T16:36:13;13.94;48.06
70708;SHT30;58277;47.316;18.908;2023-03-13T16:38:35;13.89;48.73
70708;SHT30;58277;47.316;18.908;2023-03-13T16:40:58;13.88;48.41
70708;SHT30;58277;47.316;18.908;2023-03-13T16:43:21;13.78;48.50
70708;SHT30;58277;47.316;18.908;2023-03-13T16:45:43;13.78;48.06
70708;SHT30;58277;47.316;18.908;2023-03-13T16:48:12;13.68;48.45
70708;SHT30;58277;47.316;18.908;2023-03-13T16:50:37;13.60;49.14
70708;SHT30;58277;47.316;18.908;2023-03-13T16:53:01;13.64;49.29
70708;SHT30;58277;47.316;18.908;2023-03-13T16:55:24;13.51;49.42
70708;SHT30;58277;47.316;18.908;2023-03-13T16:57:49;13.34;50.27
70708;SHT30;58277;47.316;18.908;2023-03-13T17:00:19;13.20;50.66
70708;SHT30;58277;47.316;18.908;2023-03-13T17:02:43;13.28;50.87
70708;SHT30;58277;47.316;18.908;2023-03-13T17:05:05;13.17;51.02
70708;SHT30;58277;47.316;18.908;2023-03-13T17:07:29;13.22;50.99
70708;SHT30;58277;47.316;18.908;2023-03-13T17:09:53;13.13;51.31
70708;SHT30;58277;47.316;18.908;2023-03-13T17:12:17;13.16;51.33
70708;SHT30;58277;47.316;18.908;2023-03-13T17:14:40;13.10;52.05
70708;SHT30;58277;47.316;18.908;2023-03-13T17:17:03;13.05;51.84
70708;SHT30;58277;47.316;18.908;2023-03-13T17:19:26;13.00;52.00